sensor_id;sensor_type;location;lat;lon;timestamp;P1;durP1;ratioP1;P2;durP2;ratioP2
14056;SDS011;7103;54.300;10.180;2022-07-03T00:02:07;0.10;;;0.10;;
14056;SDS011;7103;54.300;10.180;2022-07-03T00:04:35;0.10;;;0.10;;
14056;SDS011;7103;54.300;10.180;2022-07-03T00:07:02;0.10;;;0.10;;
14056;SDS011;7103;54.300;10.180;2022-07-03T00:09:29;0.10;;;0.10;;
14056;SDS011;7103;54.300;10.180;2022-07-03T00:11:56;0.10;;;0.10;;
14056;SDS011;7103;54.300;10.180;2022-07-03T00:14:23;0.10;;;0.10;;
14056;SDS011;7103;54.300;10.180;2022-07-03T00:16:50;0.10;;;0.10;;
14056;SDS011;7103;54.300;10.180;2022-07-03T00:19:17;0.10;;;0.10;;
14056;SDS011;7103;54.300;10.180;2022-07-03T00:21:45;0.10;;;0.10;;
14056;SDS011;7103;54.300;10.180;2022-07-03T00:24:32;0.10;;;0.10;;
14056;SDS011;7103;54.300;10.180;2022-07-03T00:27:05;0.10;;;0.10;;
14056;SDS011;7103;54.300;10.180;2022-07-03T00:29:40;0.10;;;0.10;;
14056;SDS011;7103;54.300;10.180;2022-07-03T00:32:09;0.10;;;0.10;;
14056;SDS011;7103;54.300;10.180;2022-07-03T00:34:38;0.10;;;0.10;;
14056;SDS011;7103;54.300;10.180;2022-07-03T00:37:07;0.10;;;0.10;;
14056;SDS011;7103;54.300;10.180;2022-07-03T00:39:36;0.10;;;0.10;;
14056;SDS011;7103;54.300;10.180;2022-07-03T00:42:05;0.10;;;0.10;;
14056;SDS011;7103;54.300;10.180;2022-07-03T00:44:35;0.10;;;0.10;;
14056;SDS011;7103;54.300;10.180;2022-07-03T00:47:14;0.00;;;0.00;;
14056;SDS011;7103;54.300;10.180;2022-07-03T00:49:46;0.10;;;0.10;;
14056;SDS011;7103;54.300;10.180;2022-07-03T00:52:15;0.00;;;0.00;;
14056;SDS011;7103;54.300;10.180;2022-07-03T00:54:51;0.10;;;0.10;;
14056;SDS011;7103;54.300;10.180;2022-07-03T00:57:22;0.10;;;0.10;;
14056;SDS011;7103;54.300;10.180;2022-07-03T00:59:51;0.10;;;0.10;;
14056;SDS011;7103;54.300;10.180;2022-07-03T01:05:11;0.00;;;0.00;;
14056;SDS011;7103;54.300;10.180;2022-07-03T01:08:20;0.10;;;0.10;;
14056;SDS011;7103;54.300;10.180;2022-07-03T01:22:12;0.00;;;0.00;;
14056;SDS011;7103;54.300;10.180;2022-07-03T01:25:16;0.00;;;0.00;;
14056;SDS011;7103;54.300;10.180;2022-07-03T01:28:09;0.00;;;0.00;;
14056;SDS011;7103;54.300;10.180;2022-07-03T01:33:17;0.10;;;0.10;;
14056;SDS011;7103;54.300;10.180;2022-07-03T01:35:52;0.00;;;0.00;;
14056;SDS011;7103;54.300;10.180;2022-07-03T01:38:28;0.10;;;0.10;;
14056;SDS011;7103;54.300;10.180;2022-07-03T01:40:56;0.10;;;0.10;;
14056;SDS011;7103;54.300;10.180;2022-07-03T01:43:28;0.10;;;0.10;;
14056;SDS011;7103;54.300;10.180;2022-07-03T01:45:57;0.10;;;0.10;;
14056;SDS011;7103;54.300;10.180;2022-07-03T01:48:27;0.10;;;0.10;;
14056;SDS011;7103;54.300;10.180;2022-07-03T01:50:55;0.10;;;0.10;;
14056;SDS011;7103;54.300;10.180;2022-07-03T01:53:30;0.10;;;0.10;;
14056;SDS011;7103;54.300;10.180;2022-07-03T01:55:58;0.10;;;0.10;;
14056;SDS011;7103;54.300;10.180;2022-07-03T01:58:26;0.10;;;0.10;;
14056;SDS011;7103;54.300;10.180;2022-07-03T02:03:30;0.10;;;0.10;;
14056;SDS011;7103;54.300;10.180;2022-07-03T02:06:04;0.10;;;0.10;;
14056;SDS011;7103;54.300;10.180;2022-07-03T02:09:03;0.10;;;0.10;;
14056;SDS011;7103;54.300;10.180;2022-07-03T02:11:52;0.10;;;0.10;;
14056;SDS011;7103;54.300;10.180;2022-07-03T02:14:25;0.10;;;0.10;;
14056;SDS011;7103;54.300;10.180;2022-07-03T02:22:33;0.10;;;0.10;;
14056;SDS011;7103;54.300;10.180;2022-07-03T02:25:06;0.10;;;0.10;;
14056;SDS011;7103;54.300;10.180;2022-07-03T02:27:44;0.10;;;0.10;;
14056;SDS011;7103;54.300;10.180;2022-07-03T02:30:22;0.10;;;0.10;;
14056;SDS011;7103;54.300;10.180;2022-07-03T02:32:51;0.10;;;0.10;;
14056;SDS011;7103;54.300;10.180;2022-07-03T02:43:36;0.10;;;0.10;;
14056;SDS011;7103;54.300;10.180;2022-07-03T02:46:18;0.10;;;0.10;;
14056;SDS011;7103;54.300;10.180;2022-07-03T02:51:46;0.10;;;0.10;;
14056;SDS011;7103;54.300;10.180;2022-07-03T02:54:20;0.10;;;0.10;;
14056;SDS011;7103;54.300;10.180;2022-07-03T02:57:06;0.10;;;0.10;;
14056;SDS011;7103;54.300;10.180;2022-07-03T03:02:46;0.10;;;0.10;;
14056;SDS011;7103;54.300;10.180;2022-07-03T03:08:00;0.10;;;0.10;;
14056;SDS011;7103;54.300;10.180;2022-07-03T03:10:28;0.10;;;0.10;;
14056;SDS011;7103;54.300;10.180;2022-07-03T03:13:02;0.10;;;0.10;;
14056;SDS011;7103;54.300;10.180;2022-07-03T03:15:34;0.10;;;0.10;;
14056;SDS011;7103;54.300;10.180;2022-07-03T03:18:03;0.10;;;0.10;;
14056;SDS011;7103;54.300;10.180;2022-07-03T03:20:35;0.10;;;0.10;;
14056;SDS011;7103;54.300;10.180;2022-07-03T03:23:50;0.10;;;0.10;;
14056;SDS011;7103;54.300;10.180;2022-07-03T03:26:04;0.10;;;0.10;;
14056;SDS011;7103;54.300;10.180;2022-07-03T03:28:31;0.10;;;0.10;;
14056;SDS011;7103;54.300;10.180;2022-07-03T03:30:59;0.20;;;0.20;;
14056;SDS011;7103;54.300;10.180;2022-07-03T03:33:26;0.10;;;0.10;;
14056;SDS011;7103;54.300;10.180;2022-07-03T03:35:54;0.10;;;0.10;;
14056;SDS011;7103;54.300;10.180;2022-07-03T03:38:21;0.10;;;0.10;;
14056;SDS011;7103;54.300;10.180;2022-07-03T03:40:48;0.10;;;0.10;;
14056;SDS011;7103;54.300;10.180;2022-07-03T03:43:16;0.10;;;0.10;;
14056;SDS011;7103;54.300;10.180;2022-07-03T03:45:43;0.10;;;0.10;;
14056;SDS011;7103;54.300;10.180;2022-07-03T03:48:10;0.10;;;0.10;;
14056;SDS011;7103;54.300;10.180;2022-07-03T03:50:36;0.10;;;0.10;;
14056;SDS011;7103;54.300;10.180;2022-07-03T03:53:03;0.10;;;0.10;;
14056;SDS011;7103;54.300;10.180;2022-07-03T03:55:31;0.10;;;0.10;;
14056;SDS011;7103;54.300;10.180;2022-07-03T03:57:58;0.10;;;0.10;;
14056;SDS011;7103;54.300;10.180;2022-07-03T04:00:27;0.10;;;0.10;;
14056;SDS011;7103;54.300;10.180;2022-07-03T04:02:54;0.10;;;0.10;;
14056;SDS011;7103;54.300;10.180;2022-07-03T04:05:21;0.10;;;0.10;;
14056;SDS011;7103;54.300;10.180;2022-07-03T04:07:48;0.10;;;0.10;;
14056;SDS011;7103;54.300;10.180;2022-07-03T04:10:15;0.10;;;0.10;;
14056;SDS011;7103;54.300;10.180;2022-07-03T04:12:42;0.10;;;0.10;;
14056;SDS011;7103;54.300;10.180;2022-07-03T04:15:09;0.10;;;0.10;;
14056;SDS011;7103;54.300;10.180;2022-07-03T04:17:36;0.10;;;0.10;;
14056;SDS011;7103;54.300;10.180;2022-07-03T04:20:03;0.10;;;0.10;;
14056;SDS011;7103;54.300;10.180;2022-07-03T04:22:33;0.10;;;0.10;;
14056;SDS011;7103;54.300;10.180;2022-07-03T04:24:59;0.10;;;0.10;;
14056;SDS011;7103;54.300;10.180;2022-07-03T04:27:26;0.10;;;0.10;;
14056;SDS011;7103;54.300;10.180;2022-07-03T04:30:13;0.20;;;0.20;;
14056;SDS011;7103;54.300;10.180;2022-07-03T04:32:40;0.10;;;0.10;;
14056;SDS011;7103;54.300;10.180;2022-07-03T04:35:07;0.10;;;0.10;;
14056;SDS011;7103;54.300;10.180;2022-07-03T04:37:35;0.10;;;0.10;;
14056;SDS011;7103;54.300;10.180;2022-07-03T04:40:02;0.10;;;0.10;;
14056;SDS011;7103;54.300;10.180;2022-07-03T04:42:29;0.10;;;0.10;;
14056;SDS011;7103;54.300;10.180;2022-07-03T04:44:56;0.10;;;0.10;;
14056;SDS011;7103;54.300;10.180;2022-07-03T04:47:23;0.10;;;0.10;;
14056;SDS011;7103;54.300;10.180;2022-07-03T04:49:50;0.10;;;0.10;;
14056;SDS011;7103;54.300;10.180;2022-07-03T04:52:17;0.10;;;0.10;;
14056;SDS011;7103;54.300;10.180;2022-07-03T04:54:44;0.10;;;0.10;;
14056;SDS011;7103;54.300;10.180;2022-07-03T04:57:10;0.10;;;0.10;;
14056;SDS011;7103;54.300;10.180;2022-07-03T04:59:37;0.10;;;0.10;;
14056;SDS011;7103;54.300;10.180;2022-07-03T05:02:07;0.10;;;0.10;;
14056;SDS011;7103;54.300;10.180;2022-07-03T05:04:34;0.10;;;0.10;;
14056;SDS011;7103;54.300;10.180;2022-07-03T05:07:01;0.10;;;0.10;;
14056;SDS011;7103;54.300;10.180;2022-07-03T05:09:28;0.10;;;0.10;;
14056;SDS011;7103;54.300;10.180;2022-07-03T05:11:55;0.10;;;0.10;;
14056;SDS011;7103;54.300;10.180;2022-07-03T05:14:22;0.10;;;0.10;;
14056;SDS011;7103;54.300;10.180;2022-07-03T05:16:48;0.20;;;0.20;;
14056;SDS011;7103;54.300;10.180;2022-07-03T05:19:15;0.10;;;0.10;;
14056;SDS011;7103;54.300;10.180;2022-07-03T05:21:43;0.10;;;0.10;;
14056;SDS011;7103;54.300;10.180;2022-07-03T05:24:10;0.10;;;0.10;;
14056;SDS011;7103;54.300;10.180;2022-07-03T05:26:38;0.10;;;0.10;;
14056;SDS011;7103;54.300;10.180;2022-07-03T05:29:04;0.10;;;0.10;;
14056;SDS011;7103;54.300;10.180;2022-07-03T05:31:31;0.10;;;0.10;;
14056;SDS011;7103;54.300;10.180;2022-07-03T05:33:58;0.10;;;0.10;;
14056;SDS011;7103;54.300;10.180;2022-07-03T05:36:25;0.10;;;0.10;;
14056;SDS011;7103;54.300;10.180;2022-07-03T05:38:52;0.17;;;0.17;;
14056;SDS011;7103;54.300;10.180;2022-07-03T05:41:38;0.10;;;0.10;;
14056;SDS011;7103;54.300;10.180;2022-07-03T05:44:05;0.10;;;0.10;;
14056;SDS011;7103;54.300;10.180;2022-07-03T05:46:31;0.10;;;0.10;;
14056;SDS011;7103;54.300;10.180;2022-07-03T05:48:58;0.10;;;0.10;;
14056;SDS011;7103;54.300;10.180;2022-07-03T05:51:25;0.10;;;0.10;;
14056;SDS011;7103;54.300;10.180;2022-07-03T05:53:52;0.10;;;0.10;;
14056;SDS011;7103;54.300;10.180;2022-07-03T05:56:22;0.10;;;0.10;;
14056;SDS011;7103;54.300;10.180;2022-07-03T05:58:50;0.20;;;0.20;;
14056;SDS011;7103;54.300;10.180;2022-07-03T06:01:17;0.10;;;0.10;;
14056;SDS011;7103;54.300;10.180;2022-07-03T06:03:44;0.10;;;0.10;;
14056;SDS011;7103;54.300;10.180;2022-07-03T06:06:11;0.20;;;0.20;;
14056;SDS011;7103;54.300;10.180;2022-07-03T06:08:38;0.10;;;0.10;;
14056;SDS011;7103;54.300;10.180;2022-07-03T06:11:05;0.20;;;0.20;;
14056;SDS011;7103;54.300;10.180;2022-07-03T06:13:32;0.20;;;0.20;;
14056;SDS011;7103;54.300;10.180;2022-07-03T06:15:59;0.20;;;0.20;;
14056;SDS011;7103;54.300;10.180;2022-07-03T06:18:26;0.20;;;0.20;;
14056;SDS011;7103;54.300;10.180;2022-07-03T06:20:53;0.20;;;0.20;;
14056;SDS011;7103;54.300;10.180;2022-07-03T06:23:19;0.20;;;0.20;;
14056;SDS011;7103;54.300;10.180;2022-07-03T06:26:06;0.20;;;0.20;;
14056;SDS011;7103;54.300;10.180;2022-07-03T06:28:33;0.20;;;0.20;;
14056;SDS011;7103;54.300;10.180;2022-07-03T06:31:00;0.20;;;0.20;;
14056;SDS011;7103;54.300;10.180;2022-07-03T06:33:27;0.20;;;0.20;;
14056;SDS011;7103;54.300;10.180;2022-07-03T06:35:54;0.20;;;0.20;;
14056;SDS011;7103;54.300;10.180;2022-07-03T06:38:21;0.20;;;0.20;;
14056;SDS011;7103;54.300;10.180;2022-07-03T06:40:48;0.20;;;0.20;;
14056;SDS011;7103;54.300;10.180;2022-07-03T06:43:14;0.20;;;0.20;;
14056;SDS011;7103;54.300;10.180;2022-07-03T06:45:41;0.20;;;0.20;;
14056;SDS011;7103;54.300;10.180;2022-07-03T06:48:08;0.20;;;0.20;;
14056;SDS011;7103;54.300;10.180;2022-07-03T06:50:37;0.20;;;0.20;;
14056;SDS011;7103;54.300;10.180;2022-07-03T06:53:04;0.20;;;0.20;;
14056;SDS011;7103;54.300;10.180;2022-07-03T06:55:31;0.20;;;0.20;;
14056;SDS011;7103;54.300;10.180;2022-07-03T06:57:58;0.20;;;0.20;;
14056;SDS011;7103;54.300;10.180;2022-07-03T07:00:25;0.20;;;0.20;;
14056;SDS011;7103;54.300;10.180;2022-07-03T07:02:52;0.20;;;0.20;;
14056;SDS011;7103;54.300;10.180;2022-07-03T07:05:22;0.27;;;0.27;;
14056;SDS011;7103;54.300;10.180;2022-07-03T07:07:49;0.20;;;0.20;;
14056;SDS011;7103;54.300;10.180;2022-07-03T07:10:16;0.20;;;0.20;;
14056;SDS011;7103;54.300;10.180;2022-07-03T07:12:43;0.20;;;0.20;;
14056;SDS011;7103;54.300;10.180;2022-07-03T07:15:10;0.20;;;0.20;;
14056;SDS011;7103;54.300;10.180;2022-07-03T07:17:37;0.20;;;0.20;;
14056;SDS011;7103;54.300;10.180;2022-07-03T07:20:04;0.20;;;0.20;;
14056;SDS011;7103;54.300;10.180;2022-07-03T07:22:31;0.30;;;0.30;;
14056;SDS011;7103;54.300;10.180;2022-07-03T07:24:58;0.27;;;0.27;;
14056;SDS011;7103;54.300;10.180;2022-07-03T07:27:25;0.30;;;0.30;;
14056;SDS011;7103;54.300;10.180;2022-07-03T07:29:52;0.27;;;0.27;;
14056;SDS011;7103;54.300;10.180;2022-07-03T07:32:19;0.20;;;0.20;;
14056;SDS011;7103;54.300;10.180;2022-07-03T07:34:46;0.30;;;0.30;;
14056;SDS011;7103;54.300;10.180;2022-07-03T07:37:13;0.20;;;0.20;;
14056;SDS011;7103;54.300;10.180;2022-07-03T07:39:40;0.23;;;0.23;;
14056;SDS011;7103;54.300;10.180;2022-07-03T07:42:07;0.30;;;0.30;;
14056;SDS011;7103;54.300;10.180;2022-07-03T07:44:34;0.30;;;0.30;;
14056;SDS011;7103;54.300;10.180;2022-07-03T07:47:01;0.30;;;0.30;;
14056;SDS011;7103;54.300;10.180;2022-07-03T07:49:28;0.30;;;0.30;;
14056;SDS011;7103;54.300;10.180;2022-07-03T07:51:55;0.30;;;0.30;;
14056;SDS011;7103;54.300;10.180;2022-07-03T07:54:22;0.40;;;0.40;;
14056;SDS011;7103;54.300;10.180;2022-07-03T07:56:49;0.30;;;0.30;;
14056;SDS011;7103;54.300;10.180;2022-07-03T07:59:16;0.30;;;0.30;;
14056;SDS011;7103;54.300;10.180;2022-07-03T08:01:43;0.30;;;0.30;;
14056;SDS011;7103;54.300;10.180;2022-07-03T08:04:28;0.40;;;0.40;;
14056;SDS011;7103;54.300;10.180;2022-07-03T08:07:13;0.40;;;0.40;;
14056;SDS011;7103;54.300;10.180;2022-07-03T08:09:40;0.38;;;0.38;;
14056;SDS011;7103;54.300;10.180;2022-07-03T08:12:07;0.30;;;0.30;;
14056;SDS011;7103;54.300;10.180;2022-07-03T08:14:34;0.30;;;0.30;;
14056;SDS011;7103;54.300;10.180;2022-07-03T08:17:01;0.30;;;0.30;;
14056;SDS011;7103;54.300;10.180;2022-07-03T08:19:28;0.30;;;0.30;;
14056;SDS011;7103;54.300;10.180;2022-07-03T08:21:55;0.30;;;0.30;;
14056;SDS011;7103;54.300;10.180;2022-07-03T08:24:23;0.30;;;0.30;;
14056;SDS011;7103;54.300;10.180;2022-07-03T08:26:50;0.30;;;0.30;;
14056;SDS011;7103;54.300;10.180;2022-07-03T08:29:16;0.30;;;0.30;;
14056;SDS011;7103;54.300;10.180;2022-07-03T08:31:43;0.30;;;0.30;;
14056;SDS011;7103;54.300;10.180;2022-07-03T08:34:11;0.30;;;0.30;;
14056;SDS011;7103;54.300;10.180;2022-07-03T08:36:40;0.30;;;0.30;;
14056;SDS011;7103;54.300;10.180;2022-07-03T08:39:08;0.30;;;0.30;;
14056;SDS011;7103;54.300;10.180;2022-07-03T08:41:44;0.30;;;0.30;;
14056;SDS011;7103;54.300;10.180;2022-07-03T08:44:14;0.30;;;0.30;;
14056;SDS011;7103;54.300;10.180;2022-07-03T08:46:43;0.20;;;0.20;;
14056;SDS011;7103;54.300;10.180;2022-07-03T08:49:11;0.23;;;0.23;;
14056;SDS011;7103;54.300;10.180;2022-07-03T08:51:38;0.30;;;0.30;;
14056;SDS011;7103;54.300;10.180;2022-07-03T08:54:08;0.20;;;0.20;;
14056;SDS011;7103;54.300;10.180;2022-07-03T08:56:35;0.30;;;0.30;;
14056;SDS011;7103;54.300;10.180;2022-07-03T08:59:03;0.30;;;0.30;;
14056;SDS011;7103;54.300;10.180;2022-07-03T09:01:33;0.20;;;0.20;;
14056;SDS011;7103;54.300;10.180;2022-07-03T09:04:10;0.30;;;0.30;;
14056;SDS011;7103;54.300;10.180;2022-07-03T09:06:42;0.30;;;0.30;;
14056;SDS011;7103;54.300;10.180;2022-07-03T09:09:09;0.30;;;0.30;;
14056;SDS011;7103;54.300;10.180;2022-07-03T09:11:37;0.23;;;0.23;;
14056;SDS011;7103;54.300;10.180;2022-07-03T09:14:04;0.30;;;0.30;;
14056;SDS011;7103;54.300;10.180;2022-07-03T09:16:36;0.23;;;0.23;;
14056;SDS011;7103;54.300;10.180;2022-07-03T09:19:03;0.20;;;0.20;;
14056;SDS011;7103;54.300;10.180;2022-07-03T09:21:38;0.20;;;0.20;;
14056;SDS011;7103;54.300;10.180;2022-07-03T09:24:06;0.20;;;0.20;;
14056;SDS011;7103;54.300;10.180;2022-07-03T09:26:49;0.20;;;0.20;;
14056;SDS011;7103;54.300;10.180;2022-07-03T09:29:18;0.30;;;0.30;;
14056;SDS011;7103;54.300;10.180;2022-07-03T09:31:53;0.20;;;0.20;;
14056;SDS011;7103;54.300;10.180;2022-07-03T09:34:23;0.20;;;0.20;;
14056;SDS011;7103;54.300;10.180;2022-07-03T09:36:51;0.30;;;0.30;;
14056;SDS011;7103;54.300;10.180;2022-07-03T09:39:26;0.20;;;0.20;;
14056;SDS011;7103;54.300;10.180;2022-07-03T09:42:04;0.20;;;0.20;;
14056;SDS011;7103;54.300;10.180;2022-07-03T09:57:36;0.30;;;0.30;;
14056;SDS011;7103;54.300;10.180;2022-07-03T10:00:25;0.30;;;0.30;;
14056;SDS011;7103;54.300;10.180;2022-07-03T10:02:58;0.30;;;0.30;;
14056;SDS011;7103;54.300;10.180;2022-07-03T10:05:27;0.30;;;0.30;;
14056;SDS011;7103;54.300;10.180;2022-07-03T10:08:20;0.23;;;0.23;;
14056;SDS011;7103;54.300;10.180;2022-07-03T10:10:48;0.30;;;0.30;;
14056;SDS011;7103;54.300;10.180;2022-07-03T10:13:15;0.30;;;0.30;;
14056;SDS011;7103;54.300;10.180;2022-07-03T10:15:42;0.30;;;0.30;;
14056;SDS011;7103;54.300;10.180;2022-07-03T10:18:11;0.20;;;0.20;;
14056;SDS011;7103;54.300;10.180;2022-07-03T10:23:09;0.30;;;0.30;;
14056;SDS011;7103;54.300;10.180;2022-07-03T10:25:40;0.30;;;0.30;;
14056;SDS011;7103;54.300;10.180;2022-07-03T10:28:11;0.30;;;0.30;;
14056;SDS011;7103;54.300;10.180;2022-07-03T10:30:40;0.30;;;0.30;;
14056;SDS011;7103;54.300;10.180;2022-07-03T10:33:10;0.30;;;0.30;;
14056;SDS011;7103;54.300;10.180;2022-07-03T10:35:38;0.30;;;0.30;;
14056;SDS011;7103;54.300;10.180;2022-07-03T10:44:04;0.30;;;0.30;;
14056;SDS011;7103;54.300;10.180;2022-07-03T10:46:50;0.30;;;0.30;;
14056;SDS011;7103;54.300;10.180;2022-07-03T10:49:25;0.30;;;0.30;;
14056;SDS011;7103;54.300;10.180;2022-07-03T10:52:02;0.30;;;0.30;;
14056;SDS011;7103;54.300;10.180;2022-07-03T10:54:31;0.30;;;0.30;;
14056;SDS011;7103;54.300;10.180;2022-07-03T10:57:17;0.30;;;0.30;;
14056;SDS011;7103;54.300;10.180;2022-07-03T11:02:20;0.30;;;0.30;;
14056;SDS011;7103;54.300;10.180;2022-07-03T11:07:30;0.30;;;0.30;;
14056;SDS011;7103;54.300;10.180;2022-07-03T11:10:32;0.30;;;0.30;;
14056;SDS011;7103;54.300;10.180;2022-07-03T11:13:07;0.30;;;0.30;;
14056;SDS011;7103;54.300;10.180;2022-07-03T11:21:11;0.30;;;0.30;;
14056;SDS011;7103;54.300;10.180;2022-07-03T11:26:34;0.20;;;0.20;;
14056;SDS011;7103;54.300;10.180;2022-07-03T11:29:00;0.30;;;0.30;;
14056;SDS011;7103;54.300;10.180;2022-07-03T11:31:28;0.30;;;0.30;;
14056;SDS011;7103;54.300;10.180;2022-07-03T11:39:09;0.30;;;0.30;;
14056;SDS011;7103;54.300;10.180;2022-07-03T11:44:06;0.30;;;0.30;;
14056;SDS011;7103;54.300;10.180;2022-07-03T11:46:34;0.30;;;0.30;;
14056;SDS011;7103;54.300;10.180;2022-07-03T11:49:10;0.32;;;0.32;;
14056;SDS011;7103;54.300;10.180;2022-07-03T11:51:38;0.38;;;0.38;;
14056;SDS011;7103;54.300;10.180;2022-07-03T11:54:07;0.32;;;0.32;;
14056;SDS011;7103;54.300;10.180;2022-07-03T11:56:34;0.32;;;0.32;;
14056;SDS011;7103;54.300;10.180;2022-07-03T11:59:03;0.40;;;0.40;;
14056;SDS011;7103;54.300;10.180;2022-07-03T12:01:35;0.30;;;0.30;;
14056;SDS011;7103;54.300;10.180;2022-07-03T12:06:47;0.30;;;0.30;;
14056;SDS011;7103;54.300;10.180;2022-07-03T12:09:21;0.30;;;0.30;;
14056;SDS011;7103;54.300;10.180;2022-07-03T12:14:43;0.38;;;0.38;;
14056;SDS011;7103;54.300;10.180;2022-07-03T12:17:12;0.40;;;0.40;;
14056;SDS011;7103;54.300;10.180;2022-07-03T12:19:51;0.30;;;0.30;;
14056;SDS011;7103;54.300;10.180;2022-07-03T12:22:31;0.30;;;0.30;;
14056;SDS011;7103;54.300;10.180;2022-07-03T12:25:04;0.32;;;0.32;;
14056;SDS011;7103;54.300;10.180;2022-07-03T12:27:33;0.30;;;0.30;;
14056;SDS011;7103;54.300;10.180;2022-07-03T12:30:02;0.30;;;0.30;;
14056;SDS011;7103;54.300;10.180;2022-07-03T12:32:30;0.30;;;0.30;;
14056;SDS011;7103;54.300;10.180;2022-07-03T12:34:57;0.30;;;0.30;;
14056;SDS011;7103;54.300;10.180;2022-07-03T12:37:35;0.30;;;0.30;;
14056;SDS011;7103;54.300;10.180;2022-07-03T12:40:05;0.30;;;0.30;;
14056;SDS011;7103;54.300;10.180;2022-07-03T12:45:15;0.30;;;0.30;;
14056;SDS011;7103;54.300;10.180;2022-07-03T12:50:30;0.30;;;0.30;;
14056;SDS011;7103;54.300;10.180;2022-07-03T12:53:11;0.30;;;0.30;;
14056;SDS011;7103;54.300;10.180;2022-07-03T12:55:51;0.30;;;0.30;;
14056;SDS011;7103;54.300;10.180;2022-07-03T12:58:22;0.30;;;0.30;;
14056;SDS011;7103;54.300;10.180;2022-07-03T13:01:23;0.30;;;0.30;;
14056;SDS011;7103;54.300;10.180;2022-07-03T13:03:52;0.30;;;0.30;;
14056;SDS011;7103;54.300;10.180;2022-07-03T13:06:20;0.23;;;0.23;;
14056;SDS011;7103;54.300;10.180;2022-07-03T13:08:52;0.27;;;0.27;;
14056;SDS011;7103;54.300;10.180;2022-07-03T13:11:26;0.23;;;0.23;;
14056;SDS011;7103;54.300;10.180;2022-07-03T13:16:42;0.30;;;0.30;;
14056;SDS011;7103;54.300;10.180;2022-07-03T13:19:15;0.30;;;0.30;;
14056;SDS011;7103;54.300;10.180;2022-07-03T13:21:44;0.27;;;0.27;;
14056;SDS011;7103;54.300;10.180;2022-07-03T13:24:13;0.30;;;0.30;;
14056;SDS011;7103;54.300;10.180;2022-07-03T13:26:42;0.30;;;0.30;;
14056;SDS011;7103;54.300;10.180;2022-07-03T13:29:16;0.20;;;0.20;;
14056;SDS011;7103;54.300;10.180;2022-07-03T13:31:43;0.28;;;0.28;;
14056;SDS011;7103;54.300;10.180;2022-07-03T13:34:11;0.30;;;0.30;;
14056;SDS011;7103;54.300;10.180;2022-07-03T13:36:37;0.30;;;0.30;;
14056;SDS011;7103;54.300;10.180;2022-07-03T13:39:04;0.30;;;0.30;;
14056;SDS011;7103;54.300;10.180;2022-07-03T13:41:34;0.30;;;0.30;;
14056;SDS011;7103;54.300;10.180;2022-07-03T13:44:02;0.30;;;0.30;;
14056;SDS011;7103;54.300;10.180;2022-07-03T13:46:29;0.30;;;0.30;;
14056;SDS011;7103;54.300;10.180;2022-07-03T13:48:55;0.30;;;0.30;;
14056;SDS011;7103;54.300;10.180;2022-07-03T13:51:22;0.30;;;0.30;;
14056;SDS011;7103;54.300;10.180;2022-07-03T13:53:50;0.30;;;0.30;;
14056;SDS011;7103;54.300;10.180;2022-07-03T13:56:17;0.30;;;0.30;;
14056;SDS011;7103;54.300;10.180;2022-07-03T13:58:44;0.30;;;0.30;;
14056;SDS011;7103;54.300;10.180;2022-07-03T14:01:18;0.30;;;0.30;;
14056;SDS011;7103;54.300;10.180;2022-07-03T14:03:47;0.30;;;0.30;;
14056;SDS011;7103;54.300;10.180;2022-07-03T14:06:14;0.25;;;0.25;;
14056;SDS011;7103;54.300;10.180;2022-07-03T14:08:41;0.30;;;0.30;;
14056;SDS011;7103;54.300;10.180;2022-07-03T14:11:08;0.30;;;0.30;;
14056;SDS011;7103;54.300;10.180;2022-07-03T14:13:35;0.30;;;0.30;;
14056;SDS011;7103;54.300;10.180;2022-07-03T14:16:02;0.30;;;0.30;;
14056;SDS011;7103;54.300;10.180;2022-07-03T14:18:29;0.27;;;0.27;;
14056;SDS011;7103;54.300;10.180;2022-07-03T14:20:56;0.40;;;0.40;;
14056;SDS011;7103;54.300;10.180;2022-07-03T14:23:23;0.30;;;0.30;;
14056;SDS011;7103;54.300;10.180;2022-07-03T14:25:52;0.30;;;0.30;;
14056;SDS011;7103;54.300;10.180;2022-07-03T14:28:19;0.30;;;0.30;;
14056;SDS011;7103;54.300;10.180;2022-07-03T14:31:15;0.30;;;0.30;;
14056;SDS011;7103;54.300;10.180;2022-07-03T14:34:01;0.30;;;0.30;;
14056;SDS011;7103;54.300;10.180;2022-07-03T14:36:28;0.30;;;0.30;;
14056;SDS011;7103;54.300;10.180;2022-07-03T14:39:10;0.30;;;0.30;;
14056;SDS011;7103;54.300;10.180;2022-07-03T14:41:40;0.30;;;0.30;;
14056;SDS011;7103;54.300;10.180;2022-07-03T14:44:07;0.30;;;0.30;;
14056;SDS011;7103;54.300;10.180;2022-07-03T14:46:34;0.20;;;0.20;;
14056;SDS011;7103;54.300;10.180;2022-07-03T14:49:01;0.20;;;0.20;;
14056;SDS011;7103;54.300;10.180;2022-07-03T14:51:28;0.20;;;0.20;;
14056;SDS011;7103;54.300;10.180;2022-07-03T14:53:55;0.30;;;0.30;;
14056;SDS011;7103;54.300;10.180;2022-07-03T14:56:22;0.30;;;0.30;;
14056;SDS011;7103;54.300;10.180;2022-07-03T14:58:49;0.30;;;0.30;;
14056;SDS011;7103;54.300;10.180;2022-07-03T15:01:17;0.20;;;0.20;;
14056;SDS011;7103;54.300;10.180;2022-07-03T15:04:07;0.30;;;0.30;;
14056;SDS011;7103;54.300;10.180;2022-07-03T15:06:35;0.20;;;0.20;;
14056;SDS011;7103;54.300;10.180;2022-07-03T15:09:03;0.30;;;0.30;;
14056;SDS011;7103;54.300;10.180;2022-07-03T15:11:32;0.30;;;0.30;;
14056;SDS011;7103;54.300;10.180;2022-07-03T15:14:19;0.23;;;0.23;;
14056;SDS011;7103;54.300;10.180;2022-07-03T15:16:47;0.27;;;0.27;;
14056;SDS011;7103;54.300;10.180;2022-07-03T15:19:18;0.30;;;0.30;;
14056;SDS011;7103;54.300;10.180;2022-07-03T15:21:46;0.20;;;0.20;;
14056;SDS011;7103;54.300;10.180;2022-07-03T15:24:14;0.30;;;0.30;;
14056;SDS011;7103;54.300;10.180;2022-07-03T15:26:44;0.20;;;0.20;;
14056;SDS011;7103;54.300;10.180;2022-07-03T15:29:12;0.20;;;0.20;;
14056;SDS011;7103;54.300;10.180;2022-07-03T15:31:40;0.20;;;0.20;;
14056;SDS011;7103;54.300;10.180;2022-07-03T15:34:07;0.27;;;0.27;;
14056;SDS011;7103;54.300;10.180;2022-07-03T15:36:40;0.20;;;0.20;;
14056;SDS011;7103;54.300;10.180;2022-07-03T15:39:27;0.20;;;0.20;;
14056;SDS011;7103;54.300;10.180;2022-07-03T15:45:23;0.20;;;0.20;;
14056;SDS011;7103;54.300;10.180;2022-07-03T15:47:41;0.20;;;0.20;;
14056;SDS011;7103;54.300;10.180;2022-07-03T15:50:26;0.20;;;0.20;;
14056;SDS011;7103;54.300;10.180;2022-07-03T15:53:19;0.20;;;0.20;;
14056;SDS011;7103;54.300;10.180;2022-07-03T15:55:51;0.20;;;0.20;;
14056;SDS011;7103;54.300;10.180;2022-07-03T15:58:26;0.20;;;0.20;;
14056;SDS011;7103;54.300;10.180;2022-07-03T16:01:01;0.20;;;0.20;;
14056;SDS011;7103;54.300;10.180;2022-07-03T16:04:03;0.20;;;0.20;;
14056;SDS011;7103;54.300;10.180;2022-07-03T16:06:37;0.20;;;0.20;;
14056;SDS011;7103;54.300;10.180;2022-07-03T16:09:07;0.20;;;0.20;;
14056;SDS011;7103;54.300;10.180;2022-07-03T16:11:35;0.20;;;0.20;;
14056;SDS011;7103;54.300;10.180;2022-07-03T16:14:03;0.20;;;0.20;;
14056;SDS011;7103;54.300;10.180;2022-07-03T16:16:31;0.20;;;0.20;;
14056;SDS011;7103;54.300;10.180;2022-07-03T16:19:03;0.10;;;0.10;;
14056;SDS011;7103;54.300;10.180;2022-07-03T16:21:31;0.20;;;0.20;;
14056;SDS011;7103;54.300;10.180;2022-07-03T16:23:58;0.10;;;0.10;;
14056;SDS011;7103;54.300;10.180;2022-07-03T16:26:26;0.10;;;0.10;;
14056;SDS011;7103;54.300;10.180;2022-07-03T16:28:56;0.10;;;0.10;;
14056;SDS011;7103;54.300;10.180;2022-07-03T16:31:27;0.10;;;0.10;;
14056;SDS011;7103;54.300;10.180;2022-07-03T16:37:15;0.10;;;0.10;;
14056;SDS011;7103;54.300;10.180;2022-07-03T16:39:50;0.10;;;0.10;;
14056;SDS011;7103;54.300;10.180;2022-07-03T16:42:19;0.10;;;0.10;;
14056;SDS011;7103;54.300;10.180;2022-07-03T16:44:48;0.10;;;0.10;;
14056;SDS011;7103;54.300;10.180;2022-07-03T16:47:17;0.10;;;0.10;;
14056;SDS011;7103;54.300;10.180;2022-07-03T16:49:47;0.10;;;0.10;;
14056;SDS011;7103;54.300;10.180;2022-07-03T16:52:20;0.10;;;0.10;;
14056;SDS011;7103;54.300;10.180;2022-07-03T16:54:51;0.10;;;0.10;;